createdAt,value
2023-04-20T00:01:04.891Z,11.55
2023-04-20T00:03:31.714Z,12.68
2023-04-20T00:05:59.909Z,11.68
2023-04-20T00:08:27.320Z,11.77
2023-04-20T00:10:55.288Z,11.70
2023-04-20T00:13:21.947Z,12.23
2023-04-20T00:15:48.663Z,10.35
2023-04-20T00:18:15.498Z,12.30
2023-04-20T00:20:42.225Z,11.30
2023-04-20T00:23:08.902Z,11.43
2023-04-20T00:25:35.610Z,10.48
2023-04-20T00:28:02.261Z,10.70
2023-04-20T00:30:29.041Z,10.25
2023-04-20T00:32:55.795Z,10.30
2023-04-20T00:35:22.515Z,9.98
2023-04-20T00:37:49.202Z,10.30
2023-04-20T00:40:16.865Z,9.90
2023-04-20T00:42:43.529Z,10.07
2023-04-20T00:45:11.591Z,10.50
2023-04-20T00:47:38.815Z,9.55
2023-04-20T00:50:06.639Z,10.60
2023-04-20T00:52:33.597Z,10.07
2023-04-20T00:55:01.676Z,10.45
2023-04-20T00:57:28.876Z,10.00
2023-04-20T00:59:55.573Z,10.32
2023-04-20T01:02:22.298Z,10.05
2023-04-20T01:04:49.141Z,9.93
2023-04-20T01:07:16.058Z,9.77
2023-04-20T01:09:42.790Z,9.80
2023-04-20T01:12:10.184Z,9.90
2023-04-20T01:14:36.950Z,10.75
2023-04-20T01:17:03.644Z,10.13
2023-04-20T01:19:30.331Z,10.57
2023-04-20T01:21:58.536Z,10.98
2023-04-20T01:24:26.407Z,11.35
2023-04-20T01:26:57.949Z,11.98
2023-04-20T01:29:28.472Z,11.57
2023-04-20T01:31:56.653Z,11.93
2023-04-20T01:34:24.638Z,13.00
2023-04-20T01:36:51.427Z,12.15
2023-04-20T01:39:18.581Z,13.35
2023-04-20T01:41:45.624Z,12.80
2023-04-20T01:44:12.316Z,13.88
2023-04-20T01:46:39.788Z,13.68
2023-04-20T01:49:07.112Z,13.73
2023-04-20T01:51:37.497Z,12.95
2023-04-20T01:54:04.242Z,13.15
2023-04-20T01:56:30.935Z,12.95
2023-04-20T01:58:58.402Z,13.65
2023-04-20T02:01:25.193Z,14.40
2023-04-20T02:03:52.193Z,14.48
2023-04-20T02:06:20.296Z,13.45
2023-04-20T02:08:46.959Z,14.90
2023-04-20T02:11:13.882Z,14.32
2023-04-20T02:13:41.973Z,14.27
2023-04-20T02:16:08.684Z,13.95
2023-04-20T02:18:38.792Z,15.13
2023-04-20T02:21:07.080Z,18.15
2023-04-20T02:23:33.743Z,15.50
2023-04-20T02:26:00.381Z,16.52
2023-04-20T02:28:27.052Z,15.52
2023-04-20T02:30:53.942Z,16.90
2023-04-20T02:33:20.729Z,16.25
2023-04-20T02:35:47.990Z,17.73
2023-04-20T02:38:14.870Z,17.67
2023-04-20T02:40:41.549Z,16.20
2023-04-20T02:43:08.319Z,16.17
2023-04-20T02:45:35.073Z,17.38
2023-04-20T02:48:01.786Z,17.17
2023-04-20T02:50:28.512Z,16.98
2023-04-20T02:52:55.232Z,19.58
2023-04-20T02:55:21.901Z,19.02
2023-04-20T02:57:48.936Z,18.98
2023-04-20T03:00:17.159Z,18.38
2023-04-20T03:02:45.307Z,18.42
2023-04-20T03:05:13.675Z,18.90
2023-04-20T03:07:40.379Z,18.90
2023-04-20T03:10:07.797Z,17.80
2023-04-20T03:12:34.475Z,17.90
2023-04-20T03:15:01.177Z,18.65
2023-04-20T03:17:27.920Z,18.13
2023-04-20T03:19:54.625Z,18.23
2023-04-20T03:22:21.298Z,18.83
2023-04-20T03:24:51.925Z,18.35
2023-04-20T03:27:21.405Z,20.15
2023-04-20T03:29:48.107Z,21.08
2023-04-20T03:32:14.821Z,21.38
2023-04-20T03:34:42.759Z,23.02
2023-04-20T03:37:09.536Z,23.73
2023-04-20T03:39:43.585Z,23.90
2023-04-20T03:42:13.152Z,24.33
2023-04-20T03:44:39.843Z,26.10
2023-04-20T03:47:06.509Z,26.42
2023-04-20T03:49:34.093Z,29.08
2023-04-20T03:52:00.801Z,27.33
2023-04-20T03:54:27.505Z,25.83
2023-04-20T03:56:54.180Z,26.83
2023-04-20T03:59:20.920Z,28.10
2023-04-20T04:01:47.575Z,27.90
2023-04-20T04:04:15.906Z,27.27
2023-04-20T04:06:42.708Z,28.92
2023-04-20T04:09:10.494Z,28.63
2023-04-20T04:11:37.150Z,28.63
2023-04-20T04:14:05.053Z,27.27
2023-04-20T04:16:33.550Z,27.23
2023-04-20T04:19:03.864Z,27.60
2023-04-20T04:21:31.649Z,26.98
2023-04-20T04:24:02.550Z,30.45
2023-04-20T04:26:29.693Z,28.55
2023-04-20T04:28:56.382Z,28.58
2023-04-20T04:31:23.064Z,28.33
2023-04-20T04:33:50.092Z,28.23
2023-04-20T04:36:17.104Z,29.40
2023-04-20T04:38:44.226Z,28.77
2023-04-20T04:41:11.657Z,28.58
2023-04-20T04:43:39.588Z,28.77
2023-04-20T04:46:08.395Z,29.08
2023-04-20T04:48:36.869Z,29.33
2023-04-20T04:51:04.962Z,28.77
2023-04-20T04:53:31.862Z,28.77
2023-04-20T04:55:59.682Z,29.17
2023-04-20T04:58:26.492Z,28.92
2023-04-20T05:00:56.797Z,28.88
2023-04-20T05:03:23.704Z,28.58
2023-04-20T05:05:50.583Z,32.80
2023-04-20T05:08:17.262Z,28.83
2023-04-20T05:10:43.947Z,28.42
2023-04-20T05:13:10.644Z,29.67
2023-04-20T05:15:37.336Z,28.35
2023-04-20T05:18:04.424Z,31.08
2023-04-20T05:20:31.243Z,32.45
2023-04-20T05:22:57.915Z,32.30
2023-04-20T05:25:24.760Z,29.00
2023-04-20T05:27:51.431Z,29.88
2023-04-20T05:30:21.227Z,28.88
2023-04-20T05:32:52.332Z,29.23
2023-04-20T05:35:21.215Z,29.90
2023-04-20T05:37:48.224Z,28.88
2023-04-20T05:40:16.509Z,29.83
2023-04-20T05:42:44.030Z,30.17
2023-04-20T05:45:11.970Z,29.67
2023-04-20T05:47:42.463Z,30.83
2023-04-20T05:50:09.797Z,31.48
2023-04-20T05:52:36.521Z,31.02
2023-04-20T05:55:03.399Z,33.92
2023-04-20T05:57:30.065Z,32.67
2023-04-20T05:59:56.794Z,34.00
2023-04-20T06:02:23.639Z,34.17
2023-04-20T06:04:50.666Z,32.15
2023-04-20T06:07:17.424Z,30.80
2023-04-20T06:09:44.119Z,33.00
2023-04-20T06:12:12.110Z,32.45
2023-04-20T06:14:38.946Z,32.45
2023-04-20T06:17:05.758Z,29.83
2023-04-20T06:19:33.671Z,29.55
2023-04-20T06:22:01.260Z,29.25
2023-04-20T06:24:29.380Z,30.13
2023-04-20T06:26:57.352Z,28.73
2023-04-20T06:29:27.220Z,30.67
2023-04-20T06:31:57.655Z,28.52
2023-04-20T06:34:25.789Z,30.00
2023-04-20T06:36:53.904Z,29.05
2023-04-20T06:39:20.916Z,28.92
2023-04-20T06:41:47.605Z,31.45
2023-04-20T06:44:14.459Z,29.52
2023-04-20T06:46:41.201Z,32.00
2023-04-20T06:49:07.917Z,31.70
2023-04-20T06:51:34.643Z,30.70
2023-04-20T06:54:01.364Z,31.23
2023-04-20T06:56:28.035Z,29.73
2023-04-20T06:58:54.739Z,29.02
2023-04-20T07:01:21.510Z,30.02
2023-04-20T07:03:49.581Z,28.10
2023-04-20T07:06:18.791Z,28.77
2023-04-20T07:08:45.486Z,28.75
2023-04-20T07:11:12.158Z,28.15
2023-04-20T07:13:38.827Z,30.30
2023-04-20T07:16:05.802Z,30.33
2023-04-20T07:18:35.145Z,29.52
2023-04-20T07:21:02.287Z,28.45
2023-04-20T07:23:28.973Z,28.80
2023-04-20T07:25:55.610Z,30.67
2023-04-20T07:28:22.504Z,27.42
2023-04-20T07:30:49.744Z,26.40
2023-04-20T07:33:18.566Z,24.45
2023-04-20T07:35:45.244Z,24.10
2023-04-20T07:38:13.254Z,24.98
2023-04-20T07:40:42.230Z,25.25
2023-04-20T07:43:09.136Z,23.27
2023-04-20T07:45:35.852Z,22.50
2023-04-20T07:48:02.629Z,23.13
2023-04-20T07:50:29.384Z,23.58
2023-04-20T07:52:56.076Z,24.15
2023-04-20T07:55:22.733Z,27.27
2023-04-20T07:57:49.718Z,34.42
2023-04-20T08:00:18.354Z,24.40
2023-04-20T08:02:45.207Z,23.15
2023-04-20T08:05:12.186Z,23.05
2023-04-20T08:07:39.566Z,22.95
2023-04-20T08:10:07.148Z,23.02
2023-04-20T08:12:33.821Z,22.05
2023-04-20T08:15:00.547Z,23.15
2023-04-20T08:17:29.211Z,24.27
2023-04-20T08:19:56.002Z,22.58
2023-04-20T08:22:22.704Z,21.80
2023-04-20T08:24:50.927Z,21.85
2023-04-20T08:27:18.798Z,21.58
2023-04-20T08:29:45.727Z,21.85
2023-04-20T08:32:13.843Z,22.02
2023-04-20T08:34:42.052Z,21.73
2023-04-20T08:37:09.058Z,20.85
2023-04-20T08:39:38.168Z,21.20
2023-04-20T08:42:05.539Z,21.38
2023-04-20T08:44:32.327Z,21.25
2023-04-20T08:46:59.979Z,22.42
2023-04-20T08:49:28.497Z,23.98
2023-04-20T08:51:55.172Z,21.60
2023-04-20T08:54:23.608Z,23.35
2023-04-20T08:56:51.488Z,24.00
2023-04-20T08:59:18.193Z,23.15
2023-04-20T09:01:46.017Z,25.58
2023-04-20T09:04:23.863Z,25.83
2023-04-20T09:06:53.078Z,24.23
2023-04-20T09:09:22.672Z,26.30
2023-04-20T09:12:04.768Z,28.38
2023-04-20T09:14:46.296Z,28.65
2023-04-20T09:17:16.079Z,25.65
2023-04-20T09:19:44.863Z,26.40
2023-04-20T09:22:12.848Z,26.45
2023-04-20T09:24:41.310Z,26.45
2023-04-20T09:27:19.103Z,25.73
2023-04-20T09:30:02.208Z,27.08
2023-04-20T09:32:29.336Z,26.67
2023-04-20T09:34:57.000Z,24.40
2023-04-20T09:37:24.994Z,25.50
2023-04-20T09:39:51.723Z,24.48
2023-04-20T09:42:27.206Z,23.65
2023-04-20T09:45:00.175Z,24.05
2023-04-20T09:47:31.514Z,23.33
2023-04-20T09:50:14.651Z,21.85
2023-04-20T09:52:49.287Z,23.95
2023-04-20T09:55:16.926Z,22.25
2023-04-20T09:57:45.257Z,21.35
2023-04-20T10:00:22.365Z,22.65
2023-04-20T10:02:50.596Z,20.85
2023-04-20T10:05:20.149Z,20.08
2023-04-20T10:08:01.762Z,19.67
2023-04-20T10:10:29.915Z,19.83
2023-04-20T10:13:00.305Z,18.52
2023-04-20T10:15:42.530Z,17.10
2023-04-20T10:18:23.527Z,18.92
2023-04-20T10:20:51.954Z,17.55
2023-04-20T10:23:18.911Z,23.00
2023-04-20T10:25:59.248Z,17.23
2023-04-20T10:28:36.950Z,17.33
2023-04-20T10:31:03.846Z,17.45
2023-04-20T10:33:30.576Z,18.52
2023-04-20T10:35:58.521Z,18.33
2023-04-20T10:38:32.871Z,17.13
2023-04-20T10:41:13.365Z,17.60
2023-04-20T10:43:40.719Z,17.40
2023-04-20T10:46:19.939Z,17.88
2023-04-20T10:48:59.354Z,17.92
2023-04-20T10:51:26.189Z,17.80
2023-04-20T10:54:07.392Z,17.27
2023-04-20T10:56:45.911Z,19.80
2023-04-20T10:59:17.262Z,16.55
2023-04-20T11:01:45.706Z,17.13
2023-04-20T11:04:13.838Z,18.35
2023-04-20T11:06:44.737Z,17.42
2023-04-20T11:09:21.972Z,18.30
2023-04-20T11:12:08.530Z,16.45
2023-04-20T11:14:50.020Z,16.80
2023-04-20T11:17:16.868Z,17.33
2023-04-20T11:19:43.609Z,17.85
2023-04-20T11:22:21.633Z,16.58
2023-04-20T11:24:48.349Z,16.83
2023-04-20T11:27:21.318Z,16.63
2023-04-20T11:29:58.518Z,17.70
2023-04-20T11:32:26.638Z,17.45
2023-04-20T11:35:08.304Z,17.38
2023-04-20T11:37:46.511Z,17.38
2023-04-20T11:40:13.481Z,16.98
2023-04-20T11:42:40.303Z,16.95
2023-04-20T11:45:07.556Z,18.10
2023-04-20T11:47:34.271Z,18.40
2023-04-20T11:50:01.011Z,17.20
2023-04-20T11:52:27.697Z,18.25
2023-04-20T11:54:54.431Z,18.67
2023-04-20T11:57:21.121Z,18.63
2023-04-20T11:59:49.114Z,17.33
2023-04-20T12:02:17.066Z,16.10
2023-04-20T12:04:48.369Z,19.25
2023-04-20T12:07:18.886Z,18.00
2023-04-20T12:09:48.191Z,16.83
2023-04-20T12:12:14.909Z,17.10
2023-04-20T12:14:41.581Z,16.83
2023-04-20T12:17:08.413Z,16.33
2023-04-20T12:19:35.137Z,16.73
2023-04-20T12:22:01.949Z,16.40
2023-04-20T12:24:28.818Z,15.68
2023-04-20T12:26:55.550Z,16.02
2023-04-20T12:29:22.215Z,15.63
2023-04-20T12:31:49.786Z,15.48
2023-04-20T12:34:18.750Z,15.82
2023-04-20T12:36:47.745Z,15.40
2023-04-20T12:39:14.594Z,15.05
2023-04-20T12:41:41.725Z,15.82
2023-04-20T12:44:10.731Z,14.75
2023-04-20T12:46:38.240Z,16.67
2023-04-20T12:49:05.048Z,15.98
2023-04-20T12:51:31.774Z,15.48
2023-04-20T12:53:58.544Z,14.40
2023-04-20T12:56:25.293Z,16.27
2023-04-20T12:58:51.945Z,16.83
2023-04-20T13:01:18.757Z,16.02
2023-04-20T13:03:46.803Z,16.38
2023-04-20T13:06:14.605Z,15.48
2023-04-20T13:08:42.434Z,17.08
2023-04-20T13:11:11.490Z,16.05
2023-04-20T13:13:39.402Z,17.27
2023-04-20T13:16:06.341Z,17.02
2023-04-20T13:18:33.801Z,16.13
2023-04-20T13:21:00.737Z,15.38
2023-04-20T13:23:27.503Z,15.82
2023-04-20T13:25:54.297Z,15.40
2023-04-20T13:28:20.942Z,15.05
2023-04-20T13:30:47.821Z,14.85
2023-04-20T13:33:14.641Z,14.68
2023-04-20T13:35:41.327Z,14.90
2023-04-20T13:38:08.071Z,14.95
2023-04-20T13:40:34.831Z,14.32
2023-04-20T13:43:01.564Z,14.25
2023-04-20T13:45:28.375Z,14.30
2023-04-20T13:47:55.735Z,14.13
2023-04-20T13:50:23.690Z,13.77
2023-04-20T13:52:51.187Z,13.85
2023-04-20T13:55:17.964Z,14.05
2023-04-20T13:57:44.633Z,14.70
2023-04-20T14:00:15.081Z,14.82
2023-04-20T14:02:41.906Z,14.80
2023-04-20T14:05:08.940Z,14.60
2023-04-20T14:07:35.712Z,14.82
2023-04-20T14:10:02.481Z,13.90
2023-04-20T14:12:29.390Z,13.07
2023-04-20T14:14:59.974Z,14.07
2023-04-20T14:17:26.843Z,13.68
2023-04-20T14:19:53.815Z,12.93
2023-04-20T14:22:20.498Z,13.13
2023-04-20T14:24:48.292Z,12.60
2023-04-20T14:27:16.168Z,13.98
2023-04-20T14:29:43.724Z,13.15
2023-04-20T14:32:12.350Z,11.77
2023-04-20T14:34:39.026Z,12.90
2023-04-20T14:37:06.833Z,11.80
2023-04-20T14:39:33.570Z,11.98
2023-04-20T14:42:00.322Z,11.85
2023-04-20T14:44:27.139Z,12.25
2023-04-20T14:46:53.949Z,10.77
2023-04-20T14:49:20.701Z,10.60
2023-04-20T14:51:47.405Z,10.95
2023-04-20T14:54:14.164Z,9.85
2023-04-20T14:56:40.914Z,10.15
2023-04-20T14:59:07.808Z,10.05
2023-04-20T15:01:34.519Z,10.32
2023-04-20T15:04:01.512Z,9.48
2023-04-20T15:06:28.395Z,9.52
2023-04-20T15:08:55.412Z,8.90
2023-04-20T15:11:22.366Z,8.20
2023-04-20T15:13:49.441Z,10.07
2023-04-20T15:16:16.214Z,9.00
2023-04-20T15:18:43.263Z,8.30
2023-04-20T15:21:09.968Z,7.97
2023-04-20T15:23:39.724Z,7.68
2023-04-20T15:26:07.715Z,7.72
2023-04-20T15:28:34.494Z,8.02
2023-04-20T15:31:01.194Z,7.60
2023-04-20T15:33:27.846Z,8.25
2023-04-20T15:35:54.535Z,7.97
2023-04-20T15:38:21.198Z,8.68
2023-04-20T15:40:49.153Z,7.70
2023-04-20T15:43:16.986Z,7.00
2023-04-20T15:45:45.132Z,7.90
2023-04-20T15:48:12.634Z,8.02
2023-04-20T15:50:40.645Z,8.15
2023-04-20T15:53:07.469Z,7.28
2023-04-20T15:55:39.173Z,7.60
2023-04-20T15:58:05.954Z,8.40
2023-04-20T16:00:32.679Z,7.65
2023-04-20T16:02:59.530Z,7.82
2023-04-20T16:05:26.602Z,7.40
2023-04-20T16:07:53.395Z,7.90
2023-04-20T16:10:20.490Z,7.53
2023-04-20T16:12:47.641Z,6.90
2023-04-20T16:15:14.416Z,7.28
2023-04-20T16:17:41.134Z,7.47
2023-04-20T16:20:08.777Z,8.18
2023-04-20T16:22:35.517Z,7.85
2023-04-20T16:25:02.258Z,8.13
2023-04-20T16:27:29.462Z,8.90
2023-04-20T16:29:56.260Z,8.43
2023-04-20T16:32:24.332Z,7.30
2023-04-20T16:34:51.163Z,8.00
2023-04-20T16:37:27.856Z,8.50
2023-04-20T16:40:04.233Z,8.18
2023-04-20T16:42:33.356Z,7.63
2023-04-20T16:45:03.072Z,7.65
2023-04-20T16:47:32.186Z,8.55
2023-04-20T16:49:58.979Z,8.45
2023-04-20T16:52:25.731Z,8.50
2023-04-20T16:54:52.613Z,9.63
2023-04-20T16:57:19.271Z,8.00
2023-04-20T16:59:46.025Z,7.95
2023-04-20T17:02:12.893Z,7.40
2023-04-20T17:04:39.840Z,9.18
2023-04-20T17:07:06.605Z,7.40
2023-04-20T17:09:33.618Z,8.38
2023-04-20T17:12:00.522Z,7.57
2023-04-20T17:14:27.314Z,8.15
2023-04-20T17:16:54.134Z,8.38
2023-04-20T17:19:21.025Z,8.80
2023-04-20T17:21:47.790Z,7.97
2023-04-20T17:24:16.262Z,8.60
2023-04-20T17:26:44.968Z,9.50
2023-04-20T17:29:14.770Z,8.45
2023-04-20T17:31:44.724Z,8.93
2023-04-20T17:34:16.414Z,8.82
2023-04-20T17:36:43.165Z,8.32
2023-04-20T17:39:09.880Z,9.15
2023-04-20T17:41:36.665Z,10.77
2023-04-20T17:44:03.348Z,13.45
2023-04-20T17:46:30.254Z,9.95
2023-04-20T17:48:57.073Z,11.05
2023-04-20T17:51:23.829Z,11.98
2023-04-20T17:53:50.531Z,12.90
2023-04-20T17:56:17.282Z,13.90
2023-04-20T17:58:44.206Z,10.60
2023-04-20T18:01:11.100Z,11.70
2023-04-20T18:03:38.067Z,10.18
2023-04-20T18:06:04.909Z,9.82
2023-04-20T18:08:31.672Z,9.93
2023-04-20T18:10:58.341Z,10.80
2023-04-20T18:13:26.355Z,10.20
2023-04-20T18:15:55.135Z,10.20
2023-04-20T18:18:23.763Z,10.02
2023-04-20T18:20:51.784Z,9.52
2023-04-20T18:23:21.843Z,11.20
2023-04-20T18:25:48.546Z,9.77
2023-04-20T18:28:16.056Z,10.35
2023-04-20T18:30:42.714Z,8.73
2023-04-20T18:33:09.474Z,10.35
2023-04-20T18:35:36.308Z,9.85
2023-04-20T18:38:03.046Z,9.15
2023-04-20T18:40:29.820Z,9.32
2023-04-20T18:42:56.806Z,9.68
2023-04-20T18:45:23.744Z,9.50
2023-04-20T18:47:51.795Z,9.40
2023-04-20T18:50:18.678Z,9.55
2023-04-20T18:52:46.686Z,9.95
2023-04-20T18:55:14.808Z,9.57
2023-04-20T18:57:42.855Z,9.27
2023-04-20T19:00:09.934Z,9.15
2023-04-20T19:02:38.094Z,8.77
2023-04-20T19:05:05.309Z,8.40
2023-04-20T19:07:34.240Z,8.68
2023-04-20T19:10:01.105Z,8.32
2023-04-20T19:12:28.094Z,8.73
2023-04-20T19:14:54.760Z,8.70
2023-04-20T19:17:21.507Z,8.38
2023-04-20T19:19:48.258Z,9.38
2023-04-20T19:22:15.121Z,8.88
2023-04-20T19:24:41.864Z,8.90
2023-04-20T19:27:08.499Z,9.05
2023-04-20T19:29:35.417Z,8.77
2023-04-20T19:32:02.597Z,8.57
2023-04-20T19:34:29.380Z,8.80
2023-04-20T19:36:56.078Z,9.63
2023-04-20T19:39:22.751Z,8.77
2023-04-20T19:41:50.484Z,8.60
2023-04-20T19:44:17.373Z,8.30
2023-04-20T19:46:51.279Z,9.40
2023-04-20T19:49:19.189Z,8.40
2023-04-20T19:51:48.556Z,8.65
2023-04-20T19:54:15.304Z,9.60
2023-04-20T19:56:42.000Z,9.07
2023-04-20T19:59:08.731Z,9.32
2023-04-20T20:01:35.481Z,9.07
2023-04-20T20:04:02.327Z,9.40
2023-04-20T20:06:29.302Z,9.85
2023-04-20T20:08:55.996Z,8.70
2023-04-20T20:11:22.679Z,8.80
2023-04-20T20:13:50.913Z,9.38
2023-04-20T20:16:17.832Z,9.45
2023-04-20T20:18:44.625Z,9.10
2023-04-20T20:21:12.468Z,9.95
2023-04-20T20:23:40.377Z,8.55
2023-04-20T20:26:08.557Z,8.30
2023-04-20T20:28:45.013Z,8.35
2023-04-20T20:31:15.221Z,8.63
2023-04-20T20:33:43.183Z,9.15
2023-04-20T20:36:10.051Z,8.57
2023-04-20T20:38:36.814Z,8.43
2023-04-20T20:41:03.546Z,8.45
2023-04-20T20:43:30.190Z,8.95
2023-04-20T20:45:56.952Z,7.70
2023-04-20T20:48:23.833Z,8.38
2023-04-20T20:50:50.495Z,8.07
2023-04-20T20:53:18.435Z,8.38
2023-04-20T20:55:45.092Z,10.75
2023-04-20T20:58:12.856Z,8.35
2023-04-20T21:00:39.743Z,9.02
2023-04-20T21:03:08.327Z,8.20
2023-04-20T21:05:35.846Z,7.95
2023-04-20T21:08:05.917Z,8.05
2023-04-20T21:10:32.593Z,8.43
2023-04-20T21:12:59.293Z,7.78
2023-04-20T21:15:25.969Z,8.48
2023-04-20T21:17:52.693Z,8.48
2023-04-20T21:20:19.508Z,7.57
2023-04-20T21:22:46.234Z,7.80
2023-04-20T21:25:12.982Z,8.10
2023-04-20T21:27:39.825Z,8.32
2023-04-20T21:30:07.075Z,8.40
2023-04-20T21:32:33.804Z,8.20
2023-04-20T21:35:00.487Z,8.32
2023-04-20T21:37:27.360Z,8.30
2023-04-20T21:39:54.019Z,8.07
2023-04-20T21:42:20.713Z,8.52
2023-04-20T21:44:48.828Z,8.02
2023-04-20T21:47:15.586Z,7.38
2023-04-20T21:49:45.548Z,8.07
2023-04-20T21:52:12.308Z,7.57
2023-04-20T21:54:41.132Z,8.25
2023-04-20T21:57:07.856Z,8.15
2023-04-20T21:59:40.081Z,7.63
2023-04-20T22:02:06.879Z,7.57
2023-04-20T22:04:33.856Z,7.53
2023-04-20T22:07:00.697Z,7.60
2023-04-20T22:09:27.487Z,8.23
2023-04-20T22:11:54.253Z,7.70
2023-04-20T22:14:21.018Z,8.60
2023-04-20T22:16:47.770Z,9.70
2023-04-20T22:19:15.610Z,8.30
2023-04-20T22:21:43.798Z,8.25
2023-04-20T22:24:12.026Z,9.15
2023-04-20T22:26:39.943Z,8.95
2023-04-20T22:29:07.683Z,9.48
2023-04-20T22:31:35.919Z,8.75
2023-04-20T22:34:05.024Z,8.93
2023-04-20T22:36:32.061Z,8.68
2023-04-20T22:38:58.817Z,8.18
2023-04-20T22:41:25.512Z,8.32
2023-04-20T22:43:52.248Z,8.35
2023-04-20T22:46:19.344Z,8.40
2023-04-20T22:48:48.381Z,8.13
2023-04-20T22:51:16.211Z,8.23
2023-04-20T22:53:43.431Z,7.60
2023-04-20T22:56:10.495Z,8.00
2023-04-20T22:58:37.196Z,8.07
2023-04-20T23:01:03.994Z,7.93
2023-04-20T23:03:31.049Z,7.50
2023-04-20T23:05:57.988Z,8.20
2023-04-20T23:08:25.700Z,7.35
2023-04-20T23:10:52.895Z,7.82
2023-04-20T23:13:22.117Z,8.60
2023-04-20T23:15:49.536Z,8.07
2023-04-20T23:18:25.540Z,7.32
2023-04-20T23:20:55.827Z,8.13
2023-04-20T23:23:23.809Z,7.95
2023-04-20T23:25:50.531Z,7.82
2023-04-20T23:28:17.303Z,8.55
2023-04-20T23:30:44.019Z,8.68
2023-04-20T23:33:10.667Z,8.23
2023-04-20T23:35:37.574Z,9.00
2023-04-20T23:38:04.345Z,8.02
2023-04-20T23:40:31.253Z,8.18
2023-04-20T23:42:57.961Z,8.38
2023-04-20T23:45:24.708Z,8.88
2023-04-20T23:47:51.495Z,8.25
2023-04-20T23:50:19.641Z,8.15
2023-04-20T23:52:46.335Z,8.90
2023-04-20T23:55:14.560Z,8.75
2023-04-20T23:57:41.364Z,9.13
